sensor_id;sensor_type;location;lat;lon;timestamp;P1;durP1;ratioP1;P2;durP2;ratioP2
58250;SDS011;51449;51.676;5.812;2022-10-31T00:03:54;15.82;;;11.63;;
58250;SDS011;51449;51.676;5.812;2022-10-31T00:06:17;22.47;;;12.47;;
58250;SDS011;51449;51.676;5.812;2022-10-31T00:08:39;19.63;;;12.50;;
58250;SDS011;51449;51.676;5.812;2022-10-31T00:11:01;18.47;;;11.97;;
58250;SDS011;51449;51.676;5.812;2022-10-31T00:13:23;21.60;;;13.60;;
58250;SDS011;51449;51.676;5.812;2022-10-31T00:15:45;19.53;;;13.43;;
58250;SDS011;51449;51.676;5.812;2022-10-31T00:18:07;19.57;;;12.93;;
58250;SDS011;51449;51.676;5.812;2022-10-31T00:20:31;19.77;;;13.15;;
58250;SDS011;51449;51.676;5.812;2022-10-31T00:22:53;21.27;;;13.50;;
58250;SDS011;51449;51.676;5.812;2022-10-31T00:25:18;20.97;;;15.30;;
58250;SDS011;51449;51.676;5.812;2022-10-31T00:27:41;17.77;;;12.83;;
58250;SDS011;51449;51.676;5.812;2022-10-31T00:30:05;19.80;;;13.23;;
58250;SDS011;51449;51.676;5.812;2022-10-31T00:32:28;19.97;;;13.47;;
58250;SDS011;51449;51.676;5.812;2022-10-31T00:34:51;20.52;;;12.63;;
58250;SDS011;51449;51.676;5.812;2022-10-31T00:37:13;17.87;;;12.47;;
58250;SDS011;51449;51.676;5.812;2022-10-31T00:39:36;19.50;;;13.67;;
58250;SDS011;51449;51.676;5.812;2022-10-31T00:41:58;20.67;;;12.93;;
58250;SDS011;51449;51.676;5.812;2022-10-31T00:44:20;21.03;;;13.77;;
58250;SDS011;51449;51.676;5.812;2022-10-31T00:46:42;21.37;;;14.20;;
58250;SDS011;51449;51.676;5.812;2022-10-31T00:49:04;20.00;;;13.73;;
58250;SDS011;51449;51.676;5.812;2022-10-31T00:51:27;21.43;;;13.83;;
58250;SDS011;51449;51.676;5.812;2022-10-31T00:53:49;21.70;;;13.70;;
58250;SDS011;51449;51.676;5.812;2022-10-31T00:56:10;19.10;;;13.27;;
58250;SDS011;51449;51.676;5.812;2022-10-31T00:58:32;20.43;;;12.80;;
58250;SDS011;51449;51.676;5.812;2022-10-31T01:00:55;18.37;;;12.97;;
58250;SDS011;51449;51.676;5.812;2022-10-31T01:03:17;19.77;;;12.23;;
58250;SDS011;51449;51.676;5.812;2022-10-31T01:05:39;17.37;;;12.33;;
58250;SDS011;51449;51.676;5.812;2022-10-31T01:08:02;19.77;;;13.10;;
58250;SDS011;51449;51.676;5.812;2022-10-31T01:10:23;20.20;;;12.20;;
58250;SDS011;51449;51.676;5.812;2022-10-31T01:12:47;16.20;;;10.97;;
58250;SDS011;51449;51.676;5.812;2022-10-31T01:15:11;13.30;;;10.32;;
58250;SDS011;51449;51.676;5.812;2022-10-31T01:17:36;14.23;;;9.70;;
58250;SDS011;51449;51.676;5.812;2022-10-31T01:19:59;15.93;;;11.13;;
58250;SDS011;51449;51.676;5.812;2022-10-31T01:22:21;15.40;;;10.73;;
58250;SDS011;51449;51.676;5.812;2022-10-31T01:24:44;16.23;;;10.77;;
58250;SDS011;51449;51.676;5.812;2022-10-31T01:27:06;16.83;;;12.20;;
58250;SDS011;51449;51.676;5.812;2022-10-31T01:29:28;16.80;;;12.17;;
58250;SDS011;51449;51.676;5.812;2022-10-31T01:31:50;14.53;;;11.27;;
58250;SDS011;51449;51.676;5.812;2022-10-31T01:34:13;18.03;;;11.80;;
58250;SDS011;51449;51.676;5.812;2022-10-31T01:36:37;18.53;;;12.40;;
58250;SDS011;51449;51.676;5.812;2022-10-31T01:39:00;17.57;;;11.50;;
58250;SDS011;51449;51.676;5.812;2022-10-31T01:41:30;16.20;;;11.53;;
58250;SDS011;51449;51.676;5.812;2022-10-31T01:46:43;16.70;;;12.43;;
58250;SDS011;51449;51.676;5.812;2022-10-31T01:49:18;17.17;;;12.73;;
58250;SDS011;51449;51.676;5.812;2022-10-31T01:54:26;16.47;;;10.67;;
58250;SDS011;51449;51.676;5.812;2022-10-31T01:56:59;16.43;;;11.40;;
58250;SDS011;51449;51.676;5.812;2022-10-31T01:59:24;16.67;;;11.63;;
58250;SDS011;51449;51.676;5.812;2022-10-31T02:01:52;15.77;;;10.63;;
58250;SDS011;51449;51.676;5.812;2022-10-31T02:04:15;13.50;;;10.33;;
58250;SDS011;51449;51.676;5.812;2022-10-31T02:07:03;15.50;;;10.40;;
58250;SDS011;51449;51.676;5.812;2022-10-31T02:09:35;15.43;;;10.63;;
58250;SDS011;51449;51.676;5.812;2022-10-31T02:11:59;14.00;;;10.02;;
58250;SDS011;51449;51.676;5.812;2022-10-31T02:14:24;15.65;;;10.05;;
58250;SDS011;51449;51.676;5.812;2022-10-31T02:16:50;15.53;;;10.37;;
58250;SDS011;51449;51.676;5.812;2022-10-31T02:19:13;14.73;;;10.83;;
58250;SDS011;51449;51.676;5.812;2022-10-31T02:21:50;19.97;;;12.23;;
58250;SDS011;51449;51.676;5.812;2022-10-31T02:30:19;16.67;;;12.10;;
58250;SDS011;51449;51.676;5.812;2022-10-31T02:32:50;20.23;;;12.27;;
58250;SDS011;51449;51.676;5.812;2022-10-31T02:44:16;14.80;;;10.83;;
58250;SDS011;51449;51.676;5.812;2022-10-31T02:52:18;15.82;;;11.27;;
58250;SDS011;51449;51.676;5.812;2022-10-31T02:54:45;19.07;;;11.97;;
58250;SDS011;51449;51.676;5.812;2022-10-31T02:57:09;19.00;;;11.98;;
58250;SDS011;51449;51.676;5.812;2022-10-31T02:59:31;16.57;;;11.70;;
58250;SDS011;51449;51.676;5.812;2022-10-31T03:02:22;14.33;;;11.27;;
58250;SDS011;51449;51.676;5.812;2022-10-31T03:13:42;26.63;;;13.07;;
58250;SDS011;51449;51.676;5.812;2022-10-31T03:16:14;17.27;;;11.40;;
58250;SDS011;51449;51.676;5.812;2022-10-31T03:18:52;16.90;;;11.00;;
58250;SDS011;51449;51.676;5.812;2022-10-31T03:21:25;21.83;;;14.60;;
58250;SDS011;51449;51.676;5.812;2022-10-31T03:24:01;20.10;;;14.13;;
58250;SDS011;51449;51.676;5.812;2022-10-31T03:26:28;20.23;;;12.90;;
58250;SDS011;51449;51.676;5.812;2022-10-31T03:29:13;16.60;;;12.65;;
58250;SDS011;51449;51.676;5.812;2022-10-31T03:31:43;21.03;;;11.93;;
58250;SDS011;51449;51.676;5.812;2022-10-31T03:34:16;17.87;;;11.87;;
58250;SDS011;51449;51.676;5.812;2022-10-31T03:36:41;14.67;;;10.30;;
58250;SDS011;51449;51.676;5.812;2022-10-31T03:39:09;14.77;;;10.37;;
58250;SDS011;51449;51.676;5.812;2022-10-31T03:41:39;16.87;;;11.93;;
58250;SDS011;51449;51.676;5.812;2022-10-31T03:44:08;15.33;;;10.73;;
58250;SDS011;51449;51.676;5.812;2022-10-31T03:46:42;15.00;;;11.17;;
58250;SDS011;51449;51.676;5.812;2022-10-31T03:49:05;13.93;;;10.80;;
58250;SDS011;51449;51.676;5.812;2022-10-31T03:51:39;17.83;;;10.97;;
58250;SDS011;51449;51.676;5.812;2022-10-31T03:54:31;14.20;;;10.67;;
58250;SDS011;51449;51.676;5.812;2022-10-31T03:57:25;16.37;;;10.60;;
58250;SDS011;51449;51.676;5.812;2022-10-31T04:00:01;13.43;;;9.87;;
58250;SDS011;51449;51.676;5.812;2022-10-31T04:02:38;13.50;;;9.80;;
58250;SDS011;51449;51.676;5.812;2022-10-31T04:05:07;17.03;;;10.30;;
58250;SDS011;51449;51.676;5.812;2022-10-31T04:07:34;12.77;;;9.93;;
58250;SDS011;51449;51.676;5.812;2022-10-31T04:10:04;16.60;;;9.67;;
58250;SDS011;51449;51.676;5.812;2022-10-31T04:12:36;16.23;;;10.10;;
58250;SDS011;51449;51.676;5.812;2022-10-31T04:15:10;13.23;;;9.57;;
58250;SDS011;51449;51.676;5.812;2022-10-31T04:17:35;16.23;;;9.80;;
58250;SDS011;51449;51.676;5.812;2022-10-31T04:20:02;17.63;;;11.07;;
58250;SDS011;51449;51.676;5.812;2022-10-31T04:22:24;14.30;;;10.67;;
58250;SDS011;51449;51.676;5.812;2022-10-31T04:24:46;14.70;;;9.77;;
58250;SDS011;51449;51.676;5.812;2022-10-31T04:27:10;12.00;;;8.93;;
58250;SDS011;51449;51.676;5.812;2022-10-31T04:29:32;11.00;;;7.63;;
58250;SDS011;51449;51.676;5.812;2022-10-31T04:31:54;12.93;;;6.90;;
58250;SDS011;51449;51.676;5.812;2022-10-31T04:34:16;9.90;;;7.50;;
58250;SDS011;51449;51.676;5.812;2022-10-31T04:36:38;9.07;;;7.30;;
58250;SDS011;51449;51.676;5.812;2022-10-31T04:39:01;10.83;;;7.37;;
58250;SDS011;51449;51.676;5.812;2022-10-31T04:41:33;9.70;;;7.53;;
58250;SDS011;51449;51.676;5.812;2022-10-31T04:43:58;8.60;;;7.80;;
58250;SDS011;51449;51.676;5.812;2022-10-31T04:46:21;8.17;;;7.37;;
58250;SDS011;51449;51.676;5.812;2022-10-31T04:48:43;8.63;;;7.73;;
58250;SDS011;51449;51.676;5.812;2022-10-31T04:51:05;8.37;;;7.57;;
58250;SDS011;51449;51.676;5.812;2022-10-31T04:53:27;7.40;;;6.70;;
58250;SDS011;51449;51.676;5.812;2022-10-31T04:56:08;6.60;;;6.00;;
58250;SDS011;51449;51.676;5.812;2022-10-31T04:58:35;7.43;;;5.70;;
58250;SDS011;51449;51.676;5.812;2022-10-31T05:01:01;5.93;;;5.30;;
58250;SDS011;51449;51.676;5.812;2022-10-31T05:03:23;5.80;;;5.30;;
58250;SDS011;51449;51.676;5.812;2022-10-31T05:05:45;6.07;;;5.57;;
58250;SDS011;51449;51.676;5.812;2022-10-31T05:08:07;8.17;;;5.50;;
58250;SDS011;51449;51.676;5.812;2022-10-31T05:10:30;11.20;;;6.90;;
58250;SDS011;51449;51.676;5.812;2022-10-31T05:12:54;16.13;;;7.95;;
58250;SDS011;51449;51.676;5.812;2022-10-31T05:15:40;10.70;;;7.20;;
58250;SDS011;51449;51.676;5.812;2022-10-31T05:18:31;8.90;;;7.90;;
58250;SDS011;51449;51.676;5.812;2022-10-31T05:21:11;9.30;;;7.57;;
58250;SDS011;51449;51.676;5.812;2022-10-31T05:23:40;11.33;;;7.93;;
58250;SDS011;51449;51.676;5.812;2022-10-31T05:26:08;9.50;;;7.90;;
58250;SDS011;51449;51.676;5.812;2022-10-31T05:28:30;11.63;;;8.27;;
58250;SDS011;51449;51.676;5.812;2022-10-31T05:30:53;11.37;;;8.00;;
58250;SDS011;51449;51.676;5.812;2022-10-31T05:33:15;9.57;;;7.60;;
58250;SDS011;51449;51.676;5.812;2022-10-31T05:35:55;13.27;;;8.63;;
58250;SDS011;51449;51.676;5.812;2022-10-31T05:38:25;9.07;;;7.77;;
58250;SDS011;51449;51.676;5.812;2022-10-31T05:40:49;10.25;;;7.85;;
58250;SDS011;51449;51.676;5.812;2022-10-31T05:43:10;10.23;;;7.10;;
58250;SDS011;51449;51.676;5.812;2022-10-31T05:45:32;8.87;;;6.70;;
58250;SDS011;51449;51.676;5.812;2022-10-31T05:47:58;36.55;;;10.98;;
58250;SDS011;51449;51.676;5.812;2022-10-31T05:50:42;9.50;;;7.93;;
58250;SDS011;51449;51.676;5.812;2022-10-31T05:53:04;11.07;;;8.53;;
58250;SDS011;51449;51.676;5.812;2022-10-31T05:55:31;10.77;;;8.30;;
58250;SDS011;51449;51.676;5.812;2022-10-31T05:58:06;11.25;;;7.88;;
58250;SDS011;51449;51.676;5.812;2022-10-31T06:00:30;14.40;;;9.07;;
58250;SDS011;51449;51.676;5.812;2022-10-31T06:03:04;14.97;;;9.70;;
58250;SDS011;51449;51.676;5.812;2022-10-31T06:05:56;27.47;;;9.87;;
58250;SDS011;51449;51.676;5.812;2022-10-31T06:08:23;19.97;;;10.30;;
58250;SDS011;51449;51.676;5.812;2022-10-31T06:10:45;20.13;;;10.03;;
58250;SDS011;51449;51.676;5.812;2022-10-31T06:13:10;15.57;;;9.77;;
58250;SDS011;51449;51.676;5.812;2022-10-31T06:15:42;53.37;;;10.37;;
58250;SDS011;51449;51.676;5.812;2022-10-31T06:18:05;43.42;;;9.05;;
58250;SDS011;51449;51.676;5.812;2022-10-31T06:20:31;9.90;;;8.57;;
58250;SDS011;51449;51.676;5.812;2022-10-31T06:22:57;12.67;;;9.47;;
58250;SDS011;51449;51.676;5.812;2022-10-31T06:25:20;14.93;;;9.63;;
58250;SDS011;51449;51.676;5.812;2022-10-31T06:27:43;12.10;;;8.77;;
58250;SDS011;51449;51.676;5.812;2022-10-31T06:32:31;13.93;;;9.93;;
58250;SDS011;51449;51.676;5.812;2022-10-31T06:34:53;11.50;;;9.33;;
58250;SDS011;51449;51.676;5.812;2022-10-31T06:37:16;16.37;;;10.23;;
58250;SDS011;51449;51.676;5.812;2022-10-31T06:39:41;14.03;;;10.30;;
58250;SDS011;51449;51.676;5.812;2022-10-31T06:42:05;13.48;;;10.13;;
58250;SDS011;51449;51.676;5.812;2022-10-31T06:44:28;11.93;;;9.30;;
58250;SDS011;51449;51.676;5.812;2022-10-31T06:46:54;16.70;;;10.80;;
58250;SDS011;51449;51.676;5.812;2022-10-31T06:49:35;11.53;;;9.20;;
58250;SDS011;51449;51.676;5.812;2022-10-31T06:52:03;14.53;;;9.80;;
58250;SDS011;51449;51.676;5.812;2022-10-31T06:54:26;12.50;;;9.03;;
58250;SDS011;51449;51.676;5.812;2022-10-31T06:56:48;10.63;;;8.60;;
58250;SDS011;51449;51.676;5.812;2022-10-31T06:59:10;10.27;;;8.67;;
58250;SDS011;51449;51.676;5.812;2022-10-31T07:02:04;13.03;;;9.23;;
58250;SDS011;51449;51.676;5.812;2022-10-31T07:04:27;11.80;;;8.67;;
58250;SDS011;51449;51.676;5.812;2022-10-31T07:06:50;15.13;;;9.10;;
58250;SDS011;51449;51.676;5.812;2022-10-31T07:09:14;12.55;;;8.75;;
58250;SDS011;51449;51.676;5.812;2022-10-31T07:11:36;44.57;;;11.03;;
58250;SDS011;51449;51.676;5.812;2022-10-31T07:13:58;15.17;;;9.57;;
58250;SDS011;51449;51.676;5.812;2022-10-31T07:16:20;15.17;;;10.27;;
58250;SDS011;51449;51.676;5.812;2022-10-31T07:18:42;14.27;;;10.47;;
58250;SDS011;51449;51.676;5.812;2022-10-31T07:21:05;12.93;;;9.30;;
58250;SDS011;51449;51.676;5.812;2022-10-31T07:23:27;12.73;;;9.53;;
58250;SDS011;51449;51.676;5.812;2022-10-31T07:26:18;13.93;;;10.47;;
58250;SDS011;51449;51.676;5.812;2022-10-31T07:28:41;12.73;;;9.40;;
58250;SDS011;51449;51.676;5.812;2022-10-31T07:31:06;11.10;;;9.33;;
58250;SDS011;51449;51.676;5.812;2022-10-31T07:33:30;11.00;;;8.25;;
58250;SDS011;51449;51.676;5.812;2022-10-31T07:36:11;9.83;;;8.70;;
58250;SDS011;51449;51.676;5.812;2022-10-31T07:38:36;11.10;;;8.37;;
58250;SDS011;51449;51.676;5.812;2022-10-31T07:40:58;14.43;;;9.67;;
58250;SDS011;51449;51.676;5.812;2022-10-31T07:43:23;13.85;;;10.40;;
58250;SDS011;51449;51.676;5.812;2022-10-31T07:46:10;13.27;;;9.27;;
58250;SDS011;51449;51.676;5.812;2022-10-31T07:48:51;12.60;;;9.37;;
58250;SDS011;51449;51.676;5.812;2022-10-31T07:51:31;11.60;;;9.07;;
58250;SDS011;51449;51.676;5.812;2022-10-31T07:54:25;14.70;;;9.53;;
58250;SDS011;51449;51.676;5.812;2022-10-31T07:56:47;12.10;;;9.20;;
58250;SDS011;51449;51.676;5.812;2022-10-31T07:59:10;13.73;;;9.47;;
58250;SDS011;51449;51.676;5.812;2022-10-31T08:01:32;13.47;;;9.73;;
58250;SDS011;51449;51.676;5.812;2022-10-31T08:04:23;11.70;;;9.17;;
58250;SDS011;51449;51.676;5.812;2022-10-31T08:07:03;13.47;;;9.63;;
58250;SDS011;51449;51.676;5.812;2022-10-31T08:09:29;13.90;;;10.17;;
58250;SDS011;51449;51.676;5.812;2022-10-31T08:11:55;15.47;;;10.47;;
58250;SDS011;51449;51.676;5.812;2022-10-31T08:14:17;14.87;;;10.63;;
58250;SDS011;51449;51.676;5.812;2022-10-31T08:16:43;15.23;;;10.27;;
58250;SDS011;51449;51.676;5.812;2022-10-31T08:19:06;14.53;;;11.23;;
58250;SDS011;51449;51.676;5.812;2022-10-31T08:21:32;15.47;;;11.30;;
58250;SDS011;51449;51.676;5.812;2022-10-31T08:23:54;17.87;;;12.17;;
58250;SDS011;51449;51.676;5.812;2022-10-31T08:26:18;15.65;;;13.75;;
58250;SDS011;51449;51.676;5.812;2022-10-31T08:28:41;16.37;;;12.93;;
58250;SDS011;51449;51.676;5.812;2022-10-31T08:31:03;18.27;;;14.03;;
58250;SDS011;51449;51.676;5.812;2022-10-31T08:33:35;19.43;;;13.43;;
58250;SDS011;51449;51.676;5.812;2022-10-31T08:36:26;20.43;;;15.40;;
58250;SDS011;51449;51.676;5.812;2022-10-31T08:39:08;21.77;;;15.47;;
58250;SDS011;51449;51.676;5.812;2022-10-31T08:41:30;21.43;;;15.27;;
58250;SDS011;51449;51.676;5.812;2022-10-31T08:43:54;22.63;;;15.60;;
58250;SDS011;51449;51.676;5.812;2022-10-31T08:46:16;26.17;;;16.33;;
58250;SDS011;51449;51.676;5.812;2022-10-31T08:48:38;24.37;;;18.13;;
58250;SDS011;51449;51.676;5.812;2022-10-31T08:51:00;25.10;;;18.07;;
58250;SDS011;51449;51.676;5.812;2022-10-31T08:53:23;27.67;;;18.07;;
58250;SDS011;51449;51.676;5.812;2022-10-31T08:56:02;28.87;;;20.23;;
58250;SDS011;51449;51.676;5.812;2022-10-31T08:58:24;28.83;;;20.20;;
58250;SDS011;51449;51.676;5.812;2022-10-31T09:00:51;28.97;;;20.93;;
58250;SDS011;51449;51.676;5.812;2022-10-31T09:03:25;31.87;;;20.87;;
58250;SDS011;51449;51.676;5.812;2022-10-31T09:05:54;32.20;;;21.60;;
58250;SDS011;51449;51.676;5.812;2022-10-31T09:08:22;28.80;;;20.10;;
58250;SDS011;51449;51.676;5.812;2022-10-31T09:10:45;31.50;;;21.37;;
58250;SDS011;51449;51.676;5.812;2022-10-31T09:13:11;30.13;;;21.03;;
58250;SDS011;51449;51.676;5.812;2022-10-31T09:16:14;34.07;;;20.93;;
58250;SDS011;51449;51.676;5.812;2022-10-31T09:18:37;32.20;;;22.03;;
58250;SDS011;51449;51.676;5.812;2022-10-31T09:21:00;38.17;;;23.27;;
58250;SDS011;51449;51.676;5.812;2022-10-31T09:23:24;34.87;;;24.43;;
58250;SDS011;51449;51.676;5.812;2022-10-31T09:25:47;39.80;;;24.03;;
58250;SDS011;51449;51.676;5.812;2022-10-31T09:28:24;35.37;;;24.70;;
58250;SDS011;51449;51.676;5.812;2022-10-31T09:30:48;39.30;;;25.83;;
58250;SDS011;51449;51.676;5.812;2022-10-31T09:33:33;37.20;;;24.67;;
58250;SDS011;51449;51.676;5.812;2022-10-31T09:36:15;39.77;;;24.83;;
58250;SDS011;51449;51.676;5.812;2022-10-31T09:38:37;38.83;;;25.83;;
58250;SDS011;51449;51.676;5.812;2022-10-31T09:52:32;36.60;;;22.77;;
58250;SDS011;51449;51.676;5.812;2022-10-31T09:55:21;36.10;;;23.70;;
58250;SDS011;51449;51.676;5.812;2022-10-31T09:58:02;34.63;;;22.30;;
58250;SDS011;51449;51.676;5.812;2022-10-31T10:00:26;39.05;;;23.98;;
58250;SDS011;51449;51.676;5.812;2022-10-31T10:05:53;40.27;;;23.20;;
58250;SDS011;51449;51.676;5.812;2022-10-31T10:08:34;37.93;;;22.53;;
58250;SDS011;51449;51.676;5.812;2022-10-31T10:20:41;40.03;;;23.30;;
58250;SDS011;51449;51.676;5.812;2022-10-31T10:26:19;34.70;;;22.50;;
58250;SDS011;51449;51.676;5.812;2022-10-31T10:28:44;38.10;;;22.67;;
58250;SDS011;51449;51.676;5.812;2022-10-31T10:31:28;38.07;;;21.53;;
58250;SDS011;51449;51.676;5.812;2022-10-31T10:36:43;34.07;;;21.20;;
58250;SDS011;51449;51.676;5.812;2022-10-31T10:39:18;34.07;;;21.03;;
58250;SDS011;51449;51.676;5.812;2022-10-31T10:41:47;37.97;;;21.87;;
58250;SDS011;51449;51.676;5.812;2022-10-31T10:44:29;33.13;;;21.57;;
58250;SDS011;51449;51.676;5.812;2022-10-31T10:47:10;32.90;;;22.47;;
58250;SDS011;51449;51.676;5.812;2022-10-31T10:49:52;37.40;;;21.97;;
58250;SDS011;51449;51.676;5.812;2022-10-31T10:52:36;37.33;;;22.40;;
58250;SDS011;51449;51.676;5.812;2022-10-31T10:55:40;39.97;;;22.90;;
58250;SDS011;51449;51.676;5.812;2022-10-31T10:58:19;31.20;;;21.40;;
58250;SDS011;51449;51.676;5.812;2022-10-31T11:00:42;36.17;;;21.50;;
58250;SDS011;51449;51.676;5.812;2022-10-31T11:03:09;36.97;;;22.30;;
58250;SDS011;51449;51.676;5.812;2022-10-31T11:05:42;35.57;;;22.37;;
58250;SDS011;51449;51.676;5.812;2022-10-31T11:08:11;34.63;;;22.03;;
58250;SDS011;51449;51.676;5.812;2022-10-31T11:10:55;32.60;;;21.30;;
58250;SDS011;51449;51.676;5.812;2022-10-31T11:13:39;37.03;;;21.60;;
58250;SDS011;51449;51.676;5.812;2022-10-31T11:16:08;36.83;;;21.52;;
58250;SDS011;51449;51.676;5.812;2022-10-31T11:18:37;35.80;;;22.13;;
58250;SDS011;51449;51.676;5.812;2022-10-31T11:21:03;33.67;;;21.30;;
58250;SDS011;51449;51.676;5.812;2022-10-31T11:23:27;34.63;;;21.97;;
58250;SDS011;51449;51.676;5.812;2022-10-31T11:25:54;34.70;;;22.17;;
58250;SDS011;51449;51.676;5.812;2022-10-31T11:28:22;33.70;;;21.57;;
58250;SDS011;51449;51.676;5.812;2022-10-31T11:30:47;34.63;;;21.60;;
58250;SDS011;51449;51.676;5.812;2022-10-31T11:33:16;37.80;;;21.73;;
58250;SDS011;51449;51.676;5.812;2022-10-31T11:35:54;37.47;;;22.73;;
58250;SDS011;51449;51.676;5.812;2022-10-31T11:41:02;33.03;;;21.43;;
58250;SDS011;51449;51.676;5.812;2022-10-31T11:43:31;34.78;;;22.20;;
58250;SDS011;51449;51.676;5.812;2022-10-31T11:45:53;33.03;;;21.93;;
58250;SDS011;51449;51.676;5.812;2022-10-31T11:48:16;33.90;;;21.67;;
58250;SDS011;51449;51.676;5.812;2022-10-31T11:50:47;38.53;;;22.27;;
58250;SDS011;51449;51.676;5.812;2022-10-31T11:53:18;31.47;;;21.57;;
58250;SDS011;51449;51.676;5.812;2022-10-31T11:55:48;32.33;;;22.17;;
58250;SDS011;51449;51.676;5.812;2022-10-31T11:58:37;33.27;;;20.53;;
58250;SDS011;51449;51.676;5.812;2022-10-31T12:00:59;37.17;;;21.50;;
58250;SDS011;51449;51.676;5.812;2022-10-31T12:03:35;33.60;;;21.37;;
58250;SDS011;51449;51.676;5.812;2022-10-31T12:06:13;35.33;;;21.73;;
58250;SDS011;51449;51.676;5.812;2022-10-31T12:08:43;34.50;;;19.87;;
58250;SDS011;51449;51.676;5.812;2022-10-31T12:11:09;29.30;;;19.50;;
58250;SDS011;51449;51.676;5.812;2022-10-31T12:19:05;29.20;;;17.87;;
58250;SDS011;51449;51.676;5.812;2022-10-31T12:24:25;31.13;;;18.45;;
58250;SDS011;51449;51.676;5.812;2022-10-31T12:36:21;25.90;;;17.70;;
58250;SDS011;51449;51.676;5.812;2022-10-31T12:42:16;24.38;;;15.95;;
58250;SDS011;51449;51.676;5.812;2022-10-31T12:52:27;27.58;;;17.13;;
58250;SDS011;51449;51.676;5.812;2022-10-31T12:58:01;31.40;;;17.23;;
58250;SDS011;51449;51.676;5.812;2022-10-31T13:00:31;28.53;;;17.60;;
58250;SDS011;51449;51.676;5.812;2022-10-31T13:03:23;29.20;;;17.60;;
58250;SDS011;51449;51.676;5.812;2022-10-31T13:05:43;30.83;;;18.17;;
58250;SDS011;51449;51.676;5.812;2022-10-31T13:08:17;26.98;;;17.17;;
58250;SDS011;51449;51.676;5.812;2022-10-31T13:10:47;27.90;;;17.52;;
58250;SDS011;51449;51.676;5.812;2022-10-31T13:15:58;31.33;;;17.77;;
58250;SDS011;51449;51.676;5.812;2022-10-31T13:18:30;27.33;;;16.08;;
58250;SDS011;51449;51.676;5.812;2022-10-31T13:21:02;29.27;;;16.90;;
58250;SDS011;51449;51.676;5.812;2022-10-31T13:23:32;28.20;;;16.70;;
58250;SDS011;51449;51.676;5.812;2022-10-31T13:26:13;26.57;;;16.70;;
58250;SDS011;51449;51.676;5.812;2022-10-31T13:28:54;26.07;;;16.20;;
58250;SDS011;51449;51.676;5.812;2022-10-31T13:31:28;28.27;;;16.73;;
58250;SDS011;51449;51.676;5.812;2022-10-31T13:33:52;26.90;;;15.47;;
58250;SDS011;51449;51.676;5.812;2022-10-31T13:36:31;28.13;;;17.20;;
58250;SDS011;51449;51.676;5.812;2022-10-31T13:45:52;29.20;;;16.80;;
58250;SDS011;51449;51.676;5.812;2022-10-31T13:50:41;24.33;;;16.83;;
58250;SDS011;51449;51.676;5.812;2022-10-31T13:55:42;28.47;;;15.63;;
58250;SDS011;51449;51.676;5.812;2022-10-31T14:00:42;29.03;;;16.20;;
58250;SDS011;51449;51.676;5.812;2022-10-31T14:03:05;28.17;;;17.07;;
58250;SDS011;51449;51.676;5.812;2022-10-31T14:05:31;26.90;;;16.27;;
58250;SDS011;51449;51.676;5.812;2022-10-31T14:07:56;29.30;;;17.50;;
58250;SDS011;51449;51.676;5.812;2022-10-31T14:10:36;30.63;;;18.00;;
58250;SDS011;51449;51.676;5.812;2022-10-31T14:13:18;29.63;;;17.80;;
58250;SDS011;51449;51.676;5.812;2022-10-31T14:15:53;29.17;;;17.13;;
58250;SDS011;51449;51.676;5.812;2022-10-31T14:18:24;29.83;;;17.47;;
58250;SDS011;51449;51.676;5.812;2022-10-31T14:20:53;30.23;;;18.93;;
58250;SDS011;51449;51.676;5.812;2022-10-31T14:25:53;31.27;;;18.73;;
58250;SDS011;51449;51.676;5.812;2022-10-31T14:28:19;30.07;;;18.83;;
58250;SDS011;51449;51.676;5.812;2022-10-31T14:30:54;33.80;;;19.77;;
58250;SDS011;51449;51.676;5.812;2022-10-31T14:33:18;38.00;;;20.07;;
58250;SDS011;51449;51.676;5.812;2022-10-31T14:41:08;38.03;;;21.50;;
58250;SDS011;51449;51.676;5.812;2022-10-31T14:46:52;39.27;;;21.70;;
58250;SDS011;51449;51.676;5.812;2022-10-31T14:49:37;40.47;;;21.45;;
58250;SDS011;51449;51.676;5.812;2022-10-31T14:52:13;35.77;;;20.17;;
58250;SDS011;51449;51.676;5.812;2022-10-31T14:54:41;36.70;;;20.80;;
58250;SDS011;51449;51.676;5.812;2022-10-31T14:57:15;33.00;;;19.77;;
58250;SDS011;51449;51.676;5.812;2022-10-31T14:59:46;39.77;;;21.40;;
58250;SDS011;51449;51.676;5.812;2022-10-31T15:04:46;35.13;;;20.90;;
58250;SDS011;51449;51.676;5.812;2022-10-31T15:09:45;35.03;;;20.37;;
58250;SDS011;51449;51.676;5.812;2022-10-31T15:12:40;39.92;;;20.13;;
58250;SDS011;51449;51.676;5.812;2022-10-31T15:15:12;36.20;;;21.47;;
58250;SDS011;51449;51.676;5.812;2022-10-31T15:17:41;33.57;;;19.77;;
58250;SDS011;51449;51.676;5.812;2022-10-31T15:20:11;38.70;;;20.53;;
58250;SDS011;51449;51.676;5.812;2022-10-31T15:22:40;40.27;;;21.90;;
58250;SDS011;51449;51.676;5.812;2022-10-31T15:25:02;35.83;;;20.90;;
58250;SDS011;51449;51.676;5.812;2022-10-31T15:27:25;38.80;;;21.27;;
58250;SDS011;51449;51.676;5.812;2022-10-31T15:29:52;36.00;;;20.03;;
58250;SDS011;51449;51.676;5.812;2022-10-31T15:32:19;36.17;;;20.50;;
58250;SDS011;51449;51.676;5.812;2022-10-31T15:34:50;44.20;;;28.97;;
58250;SDS011;51449;51.676;5.812;2022-10-31T15:37:16;73.90;;;49.83;;
58250;SDS011;51449;51.676;5.812;2022-10-31T15:39:44;43.67;;;29.20;;
58250;SDS011;51449;51.676;5.812;2022-10-31T15:42:28;34.55;;;22.67;;
58250;SDS011;51449;51.676;5.812;2022-10-31T15:45:15;39.83;;;20.80;;
58250;SDS011;51449;51.676;5.812;2022-10-31T15:48:02;35.67;;;21.20;;
58250;SDS011;51449;51.676;5.812;2022-10-31T15:50:48;38.53;;;23.33;;
58250;SDS011;51449;51.676;5.812;2022-10-31T15:53:16;36.90;;;21.17;;
58250;SDS011;51449;51.676;5.812;2022-10-31T15:55:49;34.63;;;19.80;;
58250;SDS011;51449;51.676;5.812;2022-10-31T15:58:18;33.70;;;19.67;;
58250;SDS011;51449;51.676;5.812;2022-10-31T16:00:41;39.87;;;21.17;;
58250;SDS011;51449;51.676;5.812;2022-10-31T16:03:08;35.90;;;20.33;;
58250;SDS011;51449;51.676;5.812;2022-10-31T16:05:45;37.90;;;20.80;;
58250;SDS011;51449;51.676;5.812;2022-10-31T16:10:51;36.80;;;21.95;;
58250;SDS011;51449;51.676;5.812;2022-10-31T16:13:14;33.30;;;20.57;;
58250;SDS011;51449;51.676;5.812;2022-10-31T16:15:36;38.70;;;21.93;;
58250;SDS011;51449;51.676;5.812;2022-10-31T16:17:58;38.33;;;21.57;;
58250;SDS011;51449;51.676;5.812;2022-10-31T16:20:26;35.72;;;22.55;;
58250;SDS011;51449;51.676;5.812;2022-10-31T16:22:53;40.90;;;21.20;;
58250;SDS011;51449;51.676;5.812;2022-10-31T16:25:26;35.17;;;20.13;;
58250;SDS011;51449;51.676;5.812;2022-10-31T16:27:57;36.03;;;21.33;;
58250;SDS011;51449;51.676;5.812;2022-10-31T16:32:53;39.73;;;23.47;;
58250;SDS011;51449;51.676;5.812;2022-10-31T16:35:33;37.77;;;22.00;;
58250;SDS011;51449;51.676;5.812;2022-10-31T16:37:58;111.20;;;69.07;;
58250;SDS011;51449;51.676;5.812;2022-10-31T16:40:20;41.87;;;26.60;;
58250;SDS011;51449;51.676;5.812;2022-10-31T16:42:42;47.17;;;26.40;;
58250;SDS011;51449;51.676;5.812;2022-10-31T16:45:06;36.55;;;19.77;;
58250;SDS011;51449;51.676;5.812;2022-10-31T16:47:36;33.37;;;19.07;;
58250;SDS011;51449;51.676;5.812;2022-10-31T16:49:58;32.57;;;20.17;;
58250;SDS011;51449;51.676;5.812;2022-10-31T16:52:21;36.57;;;20.20;;
58250;SDS011;51449;51.676;5.812;2022-10-31T16:54:43;30.80;;;18.43;;
58250;SDS011;51449;51.676;5.812;2022-10-31T16:57:05;28.90;;;17.23;;
58250;SDS011;51449;51.676;5.812;2022-10-31T16:59:28;33.50;;;18.20;;